sensor_id;sensor_type;location;lat;lon;timestamp;temperature;humidity
31515;DHT22;40526;52.088;17.020;2024-02-04T00:00:57;6.60;99.90
31515;DHT22;40526;52.088;17.020;2024-02-04T00:06:00;6.90;99.90
31515;DHT22;40526;52.088;17.020;2024-02-04T00:16:05;6.50;99.90
31515;DHT22;40526;52.088;17.020;2024-02-04T00:21:08;6.40;99.90
31515;DHT22;40526;52.088;17.020;2024-02-04T00:26:10;6.30;99.90
31515;DHT22;40526;52.088;17.020;2024-02-04T00:31:12;6.20;99.90
31515;DHT22;40526;52.088;17.020;2024-02-04T00:36:16;6.20;99.90
31515;DHT22;40526;52.088;17.020;2024-02-04T00:41:19;6.00;99.90
31515;DHT22;40526;52.088;17.020;2024-02-04T00:46:21;6.10;99.90
31515;DHT22;40526;52.088;17.020;2024-02-04T00:51:24;6.00;99.90
31515;DHT22;40526;52.088;17.020;2024-02-04T00:56:26;6.00;99.90
31515;DHT22;40526;52.088;17.020;2024-02-04T01:01:28;5.90;99.90
31515;DHT22;40526;52.088;17.020;2024-02-04T01:06:31;6.50;99.90
31515;DHT22;40526;52.088;17.020;2024-02-04T01:11:33;5.80;99.90
31515;DHT22;40526;52.088;17.020;2024-02-04T01:21:39;5.70;99.90
31515;DHT22;40526;52.088;17.020;2024-02-04T01:26:41;5.70;99.90
31515;DHT22;40526;52.088;17.020;2024-02-04T01:31:43;5.80;99.90
31515;DHT22;40526;52.088;17.020;2024-02-04T01:36:46;5.70;99.90
31515;DHT22;40526;52.088;17.020;2024-02-04T01:41:48;5.70;99.90
31515;DHT22;40526;52.088;17.020;2024-02-04T01:46:51;5.50;99.90
31515;DHT22;40526;52.088;17.020;2024-02-04T01:51:55;5.50;99.90
31515;DHT22;40526;52.088;17.020;2024-02-04T01:56:59;5.50;99.90
31515;DHT22;40526;52.088;17.020;2024-02-04T02:07:07;5.50;99.90
31515;DHT22;40526;52.088;17.020;2024-02-04T02:12:12;5.60;99.90
31515;DHT22;40526;52.088;17.020;2024-02-04T02:17:19;5.50;99.90
31515;DHT22;40526;52.088;17.020;2024-02-04T02:22:29;5.50;99.90
31515;DHT22;40526;52.088;17.020;2024-02-04T02:27:33;5.30;99.90
31515;DHT22;40526;52.088;17.020;2024-02-04T02:32:34;5.20;99.90
31515;DHT22;40526;52.088;17.020;2024-02-04T02:37:38;5.20;99.90
31515;DHT22;40526;52.088;17.020;2024-02-04T02:42:46;5.30;99.90
31515;DHT22;40526;52.088;17.020;2024-02-04T02:47:49;5.20;99.90
31515;DHT22;40526;52.088;17.020;2024-02-04T02:52:51;5.10;99.90
31515;DHT22;40526;52.088;17.020;2024-02-04T02:57:55;5.00;99.90
31515;DHT22;40526;52.088;17.020;2024-02-04T03:02:57;5.00;99.90
31515;DHT22;40526;52.088;17.020;2024-02-04T03:07:59;5.00;99.90
31515;DHT22;40526;52.088;17.020;2024-02-04T03:13:02;4.70;99.90
31515;DHT22;40526;52.088;17.020;2024-02-04T03:18:04;4.70;99.90
31515;DHT22;40526;52.088;17.020;2024-02-04T03:28:10;5.10;99.90
31515;DHT22;40526;52.088;17.020;2024-02-04T03:33:12;5.30;99.90
31515;DHT22;40526;52.088;17.020;2024-02-04T03:43:17;5.40;99.90
31515;DHT22;40526;52.088;17.020;2024-02-04T03:48:19;5.40;99.90
31515;DHT22;40526;52.088;17.020;2024-02-04T03:53:22;5.50;99.90
31515;DHT22;40526;52.088;17.020;2024-02-04T03:58:27;5.60;99.90
31515;DHT22;40526;52.088;17.020;2024-02-04T04:03:30;5.70;99.90
31515;DHT22;40526;52.088;17.020;2024-02-04T04:08:32;5.70;99.90
31515;DHT22;40526;52.088;17.020;2024-02-04T04:13:36;5.70;99.90
31515;DHT22;40526;52.088;17.020;2024-02-04T04:18:38;5.70;99.90
31515;DHT22;40526;52.088;17.020;2024-02-04T04:28:44;5.70;99.90
31515;DHT22;40526;52.088;17.020;2024-02-04T04:33:45;5.80;99.90
31515;DHT22;40526;52.088;17.020;2024-02-04T04:38:47;5.80;99.90
31515;DHT22;40526;52.088;17.020;2024-02-04T04:43:52;5.80;99.90
31515;DHT22;40526;52.088;17.020;2024-02-04T04:48:54;5.70;99.90
31515;DHT22;40526;52.088;17.020;2024-02-04T04:53:58;5.60;99.90
31515;DHT22;40526;52.088;17.020;2024-02-04T04:59:01;5.60;99.90
31515;DHT22;40526;52.088;17.020;2024-02-04T05:04:03;5.40;99.90
31515;DHT22;40526;52.088;17.020;2024-02-04T05:09:05;5.40;99.90
31515;DHT22;40526;52.088;17.020;2024-02-04T05:14:08;5.30;99.90
31515;DHT22;40526;52.088;17.020;2024-02-04T05:29:16;5.60;99.90
31515;DHT22;40526;52.088;17.020;2024-02-04T05:34:18;5.60;99.90
31515;DHT22;40526;52.088;17.020;2024-02-04T05:39:20;5.70;99.90
31515;DHT22;40526;52.088;17.020;2024-02-04T05:44:25;5.60;99.90
31515;DHT22;40526;52.088;17.020;2024-02-04T05:49:27;5.60;99.90
31515;DHT22;40526;52.088;17.020;2024-02-04T05:54:29;5.70;99.90
31515;DHT22;40526;52.088;17.020;2024-02-04T05:59:32;5.70;99.90
31515;DHT22;40526;52.088;17.020;2024-02-04T06:04:34;5.70;99.90
31515;DHT22;40526;52.088;17.020;2024-02-04T06:09:37;5.70;99.90
31515;DHT22;40526;52.088;17.020;2024-02-04T06:14:40;5.70;99.90
31515;DHT22;40526;52.088;17.020;2024-02-04T06:19:42;5.70;99.90
31515;DHT22;40526;52.088;17.020;2024-02-04T06:24:44;5.70;99.90
31515;DHT22;40526;52.088;17.020;2024-02-04T06:29:47;5.60;99.90
31515;DHT22;40526;52.088;17.020;2024-02-04T06:34:49;5.50;99.90
31515;DHT22;40526;52.088;17.020;2024-02-04T06:39:52;5.50;99.90
31515;DHT22;40526;52.088;17.020;2024-02-04T06:44:55;5.50;99.90
31515;DHT22;40526;52.088;17.020;2024-02-04T06:49:57;5.40;99.90
31515;DHT22;40526;52.088;17.020;2024-02-04T06:54:59;5.40;99.90
31515;DHT22;40526;52.088;17.020;2024-02-04T07:00:02;5.50;99.90
31515;DHT22;40526;52.088;17.020;2024-02-04T07:05:06;5.50;99.90
31515;DHT22;40526;52.088;17.020;2024-02-04T07:10:08;5.60;99.90
31515;DHT22;40526;52.088;17.020;2024-02-04T07:15:14;5.70;99.90
31515;DHT22;40526;52.088;17.020;2024-02-04T07:20:16;5.80;99.90
31515;DHT22;40526;52.088;17.020;2024-02-04T07:25:18;5.90;99.90
31515;DHT22;40526;52.088;17.020;2024-02-04T07:30:22;6.00;99.90
31515;DHT22;40526;52.088;17.020;2024-02-04T07:35:24;6.10;99.90
31515;DHT22;40526;52.088;17.020;2024-02-04T07:40:26;6.10;99.90
31515;DHT22;40526;52.088;17.020;2024-02-04T07:45:29;6.20;99.90
31515;DHT22;40526;52.088;17.020;2024-02-04T07:50:31;6.30;99.90
31515;DHT22;40526;52.088;17.020;2024-02-04T07:55:33;6.30;99.90
31515;DHT22;40526;52.088;17.020;2024-02-04T08:00:36;6.50;99.90
31515;DHT22;40526;52.088;17.020;2024-02-04T08:05:39;6.60;99.90
31515;DHT22;40526;52.088;17.020;2024-02-04T08:15:45;6.70;99.90
31515;DHT22;40526;52.088;17.020;2024-02-04T08:20:46;6.80;99.90
31515;DHT22;40526;52.088;17.020;2024-02-04T08:25:48;6.80;99.90
31515;DHT22;40526;52.088;17.020;2024-02-04T08:30:52;7.10;99.90
31515;DHT22;40526;52.088;17.020;2024-02-04T08:40:56;7.20;99.90
31515;DHT22;40526;52.088;17.020;2024-02-04T08:45:59;7.30;99.90
31515;DHT22;40526;52.088;17.020;2024-02-04T08:56:05;7.20;99.90
31515;DHT22;40526;52.088;17.020;2024-02-04T09:01:09;7.40;99.90
31515;DHT22;40526;52.088;17.020;2024-02-04T09:06:10;7.30;99.90
31515;DHT22;40526;52.088;17.020;2024-02-04T09:11:12;7.50;99.90
31515;DHT22;40526;52.088;17.020;2024-02-04T09:16:21;7.60;99.90
31515;DHT22;40526;52.088;17.020;2024-02-04T09:21:22;7.70;99.90
31515;DHT22;40526;52.088;17.020;2024-02-04T09:26:24;7.70;99.90
31515;DHT22;40526;52.088;17.020;2024-02-04T09:31:27;7.70;99.90
31515;DHT22;40526;52.088;17.020;2024-02-04T09:36:30;7.70;99.90
31515;DHT22;40526;52.088;17.020;2024-02-04T09:41:31;7.60;99.90
31515;DHT22;40526;52.088;17.020;2024-02-04T09:46:35;7.70;99.90
31515;DHT22;40526;52.088;17.020;2024-02-04T09:51:37;8.00;99.90
31515;DHT22;40526;52.088;17.020;2024-02-04T09:56:40;8.00;99.90
31515;DHT22;40526;52.088;17.020;2024-02-04T10:01:44;8.20;99.90
31515;DHT22;40526;52.088;17.020;2024-02-04T10:06:46;8.20;99.90
31515;DHT22;40526;52.088;17.020;2024-02-04T10:11:51;8.20;99.90
31515;DHT22;40526;52.088;17.020;2024-02-04T10:16:55;8.20;99.90
31515;DHT22;40526;52.088;17.020;2024-02-04T10:21:58;8.40;99.90
31515;DHT22;40526;52.088;17.020;2024-02-04T10:27:01;8.60;99.90
31515;DHT22;40526;52.088;17.020;2024-02-04T10:32:05;8.90;99.90
31515;DHT22;40526;52.088;17.020;2024-02-04T10:37:08;9.00;99.90
31515;DHT22;40526;52.088;17.020;2024-02-04T10:42:10;8.70;99.90
31515;DHT22;40526;52.088;17.020;2024-02-04T10:47:17;8.60;99.90
31515;DHT22;40526;52.088;17.020;2024-02-04T10:52:23;8.50;99.90
31515;DHT22;40526;52.088;17.020;2024-02-04T10:57:27;8.60;99.90
31515;DHT22;40526;52.088;17.020;2024-02-04T11:02:34;8.70;99.90
31515;DHT22;40526;52.088;17.020;2024-02-04T11:07:36;8.70;99.90
31515;DHT22;40526;52.088;17.020;2024-02-04T11:12:40;8.80;99.90
31515;DHT22;40526;52.088;17.020;2024-02-04T11:18:05;8.60;99.90
31515;DHT22;40526;52.088;17.020;2024-02-04T11:23:24;8.60;99.90
31515;DHT22;40526;52.088;17.020;2024-02-04T11:28:29;8.40;99.90
31515;DHT22;40526;52.088;17.020;2024-02-04T11:33:32;8.40;99.90
31515;DHT22;40526;52.088;17.020;2024-02-04T11:38:36;8.40;99.90
31515;DHT22;40526;52.088;17.020;2024-02-04T11:43:39;8.40;99.90
31515;DHT22;40526;52.088;17.020;2024-02-04T11:48:42;8.40;99.90
31515;DHT22;40526;52.088;17.020;2024-02-04T11:53:44;8.40;99.90
31515;DHT22;40526;52.088;17.020;2024-02-04T11:58:46;8.50;99.90
31515;DHT22;40526;52.088;17.020;2024-02-04T12:03:50;8.50;99.90
31515;DHT22;40526;52.088;17.020;2024-02-04T12:08:53;8.60;99.90
31515;DHT22;40526;52.088;17.020;2024-02-04T12:13:56;8.70;99.90
31515;DHT22;40526;52.088;17.020;2024-02-04T12:18:59;8.80;99.90
31515;DHT22;40526;52.088;17.020;2024-02-04T12:24:01;8.80;99.90
31515;DHT22;40526;52.088;17.020;2024-02-04T12:29:03;8.90;99.90
31515;DHT22;40526;52.088;17.020;2024-02-04T12:34:09;9.00;99.90
31515;DHT22;40526;52.088;17.020;2024-02-04T12:39:13;9.00;99.90
31515;DHT22;40526;52.088;17.020;2024-02-04T12:44:18;9.00;99.90
31515;DHT22;40526;52.088;17.020;2024-02-04T12:49:22;8.90;99.90
31515;DHT22;40526;52.088;17.020;2024-02-04T12:54:24;8.90;99.90
31515;DHT22;40526;52.088;17.020;2024-02-04T12:59:26;9.00;99.90
31515;DHT22;40526;52.088;17.020;2024-02-04T13:04:35;9.00;99.90
31515;DHT22;40526;52.088;17.020;2024-02-04T13:09:37;9.00;99.90
31515;DHT22;40526;52.088;17.020;2024-02-04T13:14:41;8.90;99.90
31515;DHT22;40526;52.088;17.020;2024-02-04T13:19:46;9.00;99.90
31515;DHT22;40526;52.088;17.020;2024-02-04T13:24:48;8.90;99.90
31515;DHT22;40526;52.088;17.020;2024-02-04T13:29:50;8.90;99.90
31515;DHT22;40526;52.088;17.020;2024-02-04T13:34:53;8.90;99.90
31515;DHT22;40526;52.088;17.020;2024-02-04T13:39:55;8.80;99.90
31515;DHT22;40526;52.088;17.020;2024-02-04T13:44:57;8.90;99.90
31515;DHT22;40526;52.088;17.020;2024-02-04T13:50:00;8.90;99.90
31515;DHT22;40526;52.088;17.020;2024-02-04T13:55:02;8.80;99.90
31515;DHT22;40526;52.088;17.020;2024-02-04T14:00:06;8.80;99.90
31515;DHT22;40526;52.088;17.020;2024-02-04T14:05:10;8.70;99.90
31515;DHT22;40526;52.088;17.020;2024-02-04T14:10:11;8.70;99.90
31515;DHT22;40526;52.088;17.020;2024-02-04T14:15:15;8.80;99.90
31515;DHT22;40526;52.088;17.020;2024-02-04T14:20:18;8.70;99.90
31515;DHT22;40526;52.088;17.020;2024-02-04T14:25:20;8.60;99.90
31515;DHT22;40526;52.088;17.020;2024-02-04T14:30:23;8.50;99.90
31515;DHT22;40526;52.088;17.020;2024-02-04T14:35:26;8.50;99.90
31515;DHT22;40526;52.088;17.020;2024-02-04T14:40:28;8.40;99.90
31515;DHT22;40526;52.088;17.020;2024-02-04T14:45:31;8.30;99.90
31515;DHT22;40526;52.088;17.020;2024-02-04T14:50:34;8.30;99.90
31515;DHT22;40526;52.088;17.020;2024-02-04T14:55:36;8.30;99.90
31515;DHT22;40526;52.088;17.020;2024-02-04T15:00:38;8.20;99.90
31515;DHT22;40526;52.088;17.020;2024-02-04T15:05:42;8.20;99.90
31515;DHT22;40526;52.088;17.020;2024-02-04T15:10:43;8.10;99.90
31515;DHT22;40526;52.088;17.020;2024-02-04T15:15:45;8.10;99.90
31515;DHT22;40526;52.088;17.020;2024-02-04T15:20:50;8.00;99.90
31515;DHT22;40526;52.088;17.020;2024-02-04T15:25:52;8.00;99.90
31515;DHT22;40526;52.088;17.020;2024-02-04T15:30:55;8.00;99.90
31515;DHT22;40526;52.088;17.020;2024-02-04T15:35:58;7.90;99.90
31515;DHT22;40526;52.088;17.020;2024-02-04T15:41:01;7.90;99.90
31515;DHT22;40526;52.088;17.020;2024-02-04T15:46:06;7.80;99.90
31515;DHT22;40526;52.088;17.020;2024-02-04T15:51:11;7.70;99.90
31515;DHT22;40526;52.088;17.020;2024-02-04T15:56:16;7.60;99.90
31515;DHT22;40526;52.088;17.020;2024-02-04T16:01:21;7.60;99.90
31515;DHT22;40526;52.088;17.020;2024-02-04T16:06:27;8.00;99.90
31515;DHT22;40526;52.088;17.020;2024-02-04T16:11:35;7.60;99.90
31515;DHT22;40526;52.088;17.020;2024-02-04T16:16:43;7.50;99.90
31515;DHT22;40526;52.088;17.020;2024-02-04T16:21:47;7.50;99.90
31515;DHT22;40526;52.088;17.020;2024-02-04T16:26:49;7.50;99.90
31515;DHT22;40526;52.088;17.020;2024-02-04T16:31:51;7.50;99.90
31515;DHT22;40526;52.088;17.020;2024-02-04T16:36:55;7.50;99.90
31515;DHT22;40526;52.088;17.020;2024-02-04T16:41:57;7.50;99.90
31515;DHT22;40526;52.088;17.020;2024-02-04T16:46:59;7.50;99.90
31515;DHT22;40526;52.088;17.020;2024-02-04T16:52:02;7.50;99.90
31515;DHT22;40526;52.088;17.020;2024-02-04T16:57:05;7.50;99.90
31515;DHT22;40526;52.088;17.020;2024-02-04T17:02:07;7.50;99.90
31515;DHT22;40526;52.088;17.020;2024-02-04T17:07:11;7.50;99.90
31515;DHT22;40526;52.088;17.020;2024-02-04T17:12:14;7.50;99.90
31515;DHT22;40526;52.088;17.020;2024-02-04T17:17:16;7.40;99.90
31515;DHT22;40526;52.088;17.020;2024-02-04T17:22:20;7.40;99.90
31515;DHT22;40526;52.088;17.020;2024-02-04T17:27:23;7.50;99.90
31515;DHT22;40526;52.088;17.020;2024-02-04T17:32:26;7.40;99.90
31515;DHT22;40526;52.088;17.020;2024-02-04T17:37:33;7.50;99.90
31515;DHT22;40526;52.088;17.020;2024-02-04T17:42:35;7.40;99.90
31515;DHT22;40526;52.088;17.020;2024-02-04T17:47:40;7.40;99.90
31515;DHT22;40526;52.088;17.020;2024-02-04T17:52:43;7.40;99.90
31515;DHT22;40526;52.088;17.020;2024-02-04T17:57:45;7.40;99.90
31515;DHT22;40526;52.088;17.020;2024-02-04T18:02:48;7.40;99.90
31515;DHT22;40526;52.088;17.020;2024-02-04T18:07:51;7.30;99.90
31515;DHT22;40526;52.088;17.020;2024-02-04T18:12:53;7.30;99.90
31515;DHT22;40526;52.088;17.020;2024-02-04T18:17:55;7.30;99.90
31515;DHT22;40526;52.088;17.020;2024-02-04T18:22:58;7.20;99.90
31515;DHT22;40526;52.088;17.020;2024-02-04T18:28:00;7.20;99.90
31515;DHT22;40526;52.088;17.020;2024-02-04T18:33:04;7.20;99.90
31515;DHT22;40526;52.088;17.020;2024-02-04T18:38:07;7.20;99.90
31515;DHT22;40526;52.088;17.020;2024-02-04T18:43:09;7.20;99.90
31515;DHT22;40526;52.088;17.020;2024-02-04T18:48:11;7.20;99.90
31515;DHT22;40526;52.088;17.020;2024-02-04T18:53:15;7.30;99.90
31515;DHT22;40526;52.088;17.020;2024-02-04T18:58:17;7.40;99.90
31515;DHT22;40526;52.088;17.020;2024-02-04T19:03:19;7.40;99.90
31515;DHT22;40526;52.088;17.020;2024-02-04T19:08:22;7.30;99.90
31515;DHT22;40526;52.088;17.020;2024-02-04T19:13:26;7.40;99.90
31515;DHT22;40526;52.088;17.020;2024-02-04T19:18:28;7.40;99.90
31515;DHT22;40526;52.088;17.020;2024-02-04T19:23:31;7.20;99.90
31515;DHT22;40526;52.088;17.020;2024-02-04T19:28:34;7.30;99.90
31515;DHT22;40526;52.088;17.020;2024-02-04T19:33:36;7.40;99.90
31515;DHT22;40526;52.088;17.020;2024-02-04T19:38:39;7.30;99.90
31515;DHT22;40526;52.088;17.020;2024-02-04T19:43:41;7.30;99.90
31515;DHT22;40526;52.088;17.020;2024-02-04T19:48:43;7.40;99.90
31515;DHT22;40526;52.088;17.020;2024-02-04T19:53:48;7.30;99.90
31515;DHT22;40526;52.088;17.020;2024-02-04T19:58:50;7.30;99.90
31515;DHT22;40526;52.088;17.020;2024-02-04T20:03:51;7.30;99.90
31515;DHT22;40526;52.088;17.020;2024-02-04T20:08:55;7.30;99.90
31515;DHT22;40526;52.088;17.020;2024-02-04T20:13:58;7.20;99.90
31515;DHT22;40526;52.088;17.020;2024-02-04T20:19:00;7.20;99.90
31515;DHT22;40526;52.088;17.020;2024-02-04T20:24:04;7.20;99.90
31515;DHT22;40526;52.088;17.020;2024-02-04T20:29:06;7.10;99.90
31515;DHT22;40526;52.088;17.020;2024-02-04T20:34:08;7.00;99.90
31515;DHT22;40526;52.088;17.020;2024-02-04T20:39:11;7.00;99.90
31515;DHT22;40526;52.088;17.020;2024-02-04T20:44:13;7.00;99.90
31515;DHT22;40526;52.088;17.020;2024-02-04T20:49:15;6.90;99.90
31515;DHT22;40526;52.088;17.020;2024-02-04T20:54:19;6.90;99.90
31515;DHT22;40526;52.088;17.020;2024-02-04T20:59:22;6.90;99.90
31515;DHT22;40526;52.088;17.020;2024-02-04T21:04:23;7.00;99.90
31515;DHT22;40526;52.088;17.020;2024-02-04T21:09:27;7.00;99.90
31515;DHT22;40526;52.088;17.020;2024-02-04T21:14:28;7.00;99.90
31515;DHT22;40526;52.088;17.020;2024-02-04T21:19:30;7.00;99.90
31515;DHT22;40526;52.088;17.020;2024-02-04T21:24:33;7.00;99.90
31515;DHT22;40526;52.088;17.020;2024-02-04T21:29:35;8.90;99.90
31515;DHT22;40526;52.088;17.020;2024-02-04T21:34:38;6.90;99.90
31515;DHT22;40526;52.088;17.020;2024-02-04T21:39:41;6.80;99.90
31515;DHT22;40526;52.088;17.020;2024-02-04T21:44:44;6.90;99.90
31515;DHT22;40526;52.088;17.020;2024-02-04T21:49:46;6.70;99.90
31515;DHT22;40526;52.088;17.020;2024-02-04T21:54:49;6.70;99.90
31515;DHT22;40526;52.088;17.020;2024-02-04T21:59:51;6.80;99.90
31515;DHT22;40526;52.088;17.020;2024-02-04T22:04:53;6.80;99.90
31515;DHT22;40526;52.088;17.020;2024-02-04T22:09:57;6.80;99.90
31515;DHT22;40526;52.088;17.020;2024-02-04T22:14:58;6.80;99.90
31515;DHT22;40526;52.088;17.020;2024-02-04T22:20:04;6.80;99.90
31515;DHT22;40526;52.088;17.020;2024-02-04T22:25:08;6.80;99.90
31515;DHT22;40526;52.088;17.020;2024-02-04T22:30:12;6.80;99.90
31515;DHT22;40526;52.088;17.020;2024-02-04T22:35:14;6.80;99.90
31515;DHT22;40526;52.088;17.020;2024-02-04T22:40:17;6.80;99.90
31515;DHT22;40526;52.088;17.020;2024-02-04T22:45:19;6.80;99.90
31515;DHT22;40526;52.088;17.020;2024-02-04T22:50:21;6.70;99.90
31515;DHT22;40526;52.088;17.020;2024-02-04T22:55:24;6.60;99.90
31515;DHT22;40526;52.088;17.020;2024-02-04T23:00:26;6.50;99.90
31515;DHT22;40526;52.088;17.020;2024-02-04T23:05:29;6.50;99.90
31515;DHT22;40526;52.088;17.020;2024-02-04T23:10:32;6.50;99.90
31515;DHT22;40526;52.088;17.020;2024-02-04T23:15:34;6.40;99.90
31515;DHT22;40526;52.088;17.020;2024-02-04T23:20:36;6.50;99.90
31515;DHT22;40526;52.088;17.020;2024-02-04T23:25:39;6.50;99.90
31515;DHT22;40526;52.088;17.020;2024-02-04T23:30:41;6.50;99.90
31515;DHT22;40526;52.088;17.020;2024-02-04T23:35:43;6.50;99.90
31515;DHT22;40526;52.088;17.020;2024-02-04T23:40:46;6.50;99.90
31515;DHT22;40526;52.088;17.020;2024-02-04T23:45:48;6.40;99.90
31515;DHT22;40526;52.088;17.020;2024-02-04T23:50:50;6.40;99.90
31515;DHT22;40526;52.088;17.020;2024-02-04T23:55:53;6.40;99.90
